This is the latest recevied weather packets stored in our database for station/object N5GMJ. If no packets are shown the sender has not sent any weather packets the latest 10 day(s).
| Time | Temp. | Humidity | Pressure | Rain* | Wind** | Luminosity | Snow |
|---|---|---|---|---|---|---|---|
| 1777179424 | 18.89° C | 95% | 1007.5 hPa | 0 mm | - | - | - |
| 1777179123 | 18.89° C | 94% | 1006.8 hPa | 3.05 mm | - | - | - |
| 1777178819 | 18.89° C | 93% | 1007.4 hPa | 7.11 mm | - | - | - |
| 1777178516 | 19.44° C | 94% | 1007.5 hPa | 6.1 mm | - | - | - |
| 1777178213 | 20.56° C | 94% | 1008 hPa | 3.05 mm | - | - | - |
| 1777177910 | 20.56° C | 93% | 1008.3 hPa | 1.27 mm | - | - | - |
| 1777177606 | 20.56° C | 94% | 1008.4 hPa | 3.56 mm | - | - | - |
| 1777177301 | 20.56° C | 93% | 1007.7 hPa | 6.6 mm | - | - | - |
| 1777176999 | 20.56° C | 93% | 1008 hPa | 3.05 mm | - | - | - |
| 1777176695 | 20.56° C | 91% | 1008.2 hPa | 0 mm | - | - | - |
| 1777176392 | 20.56° C | 94% | 1007.7 hPa | 3.05 mm | - | - | - |
| 1777176089 | 21.11° C | 89% | 1007.8 hPa | 0 mm | - | - | - |
| 1777175788 | 21.11° C | 88% | 1007.9 hPa | 0 mm | - | - | - |
| 1777175487 | 21.67° C | 93% | 1007.8 hPa | 7.11 mm | - | - | - |
| 1777175187 | 21.11° C | 95% | 1007.8 hPa | 19.81 mm | - | - | - |
| 1777174885 | 21.11° C | 96% | 1008.4 hPa | 16.26 mm | - | - | - |
| 1777174581 | 20° C | 96% | 1008.9 hPa | 13.72 mm | - | - | - |
| 1777174280 | 20° C | 96% | 1008.6 hPa | 19.81 mm | - | - | - |
| 1777173976 | 20° C | 96% | 1008.4 hPa | 39.62 mm | - | - | - |
| 1777173673 | 20.56° C | 95% | 1007.5 hPa | 60.71 mm | - | - | - |
| 1777173373 | 21.67° C | 94% | 1006.8 hPa | 47.5 mm | - | - | - |
| 1777173067 | 21.67° C | 87% | 1007.6 hPa | 19.81 mm | - | - | - |
| 1777172766 | 22.78° C | 82% | 1007.7 hPa | 4.83 mm | - | - | - |
| 1777172463 | 25.56° C | 77% | 1006.2 hPa | 1.78 mm | - | - | - |
| 1777172157 | 27.22° C | 84% | 1004.9 hPa | 0 mm | - | - | - |
* Rain latest hour (hover to see other rain measurements)
** Current wind speed in m/s (hover to see current wind gust speed)